sensor_id;sensor_type;location;lat;lon;timestamp;temperature;humidity
1830;DHT22;914;48.118;11.600;2023-03-14T00:01:14;14.10;94.00
1830;DHT22;914;48.118;11.600;2023-03-14T00:03:40;14.20;93.70
1830;DHT22;914;48.118;11.600;2023-03-14T00:06:07;14.30;93.60
1830;DHT22;914;48.118;11.600;2023-03-14T00:08:33;14.20;93.60
1830;DHT22;914;48.118;11.600;2023-03-14T00:11:12;14.40;93.50
1830;DHT22;914;48.118;11.600;2023-03-14T00:13:38;14.60;93.00
1830;DHT22;914;48.118;11.600;2023-03-14T00:16:05;14.50;92.90
1830;DHT22;914;48.118;11.600;2023-03-14T00:18:32;14.30;93.20
1830;DHT22;914;48.118;11.600;2023-03-14T00:21:00;14.10;93.80
1830;DHT22;914;48.118;11.600;2023-03-14T00:23:27;14.00;94.10
1830;DHT22;914;48.118;11.600;2023-03-14T00:25:53;14.00;94.20
1830;DHT22;914;48.118;11.600;2023-03-14T00:28:19;14.10;94.00
1830;DHT22;914;48.118;11.600;2023-03-14T00:30:44;14.10;94.00
1830;DHT22;914;48.118;11.600;2023-03-14T00:33:10;14.10;93.90
1830;DHT22;914;48.118;11.600;2023-03-14T00:35:36;14.10;93.90
1830;DHT22;914;48.118;11.600;2023-03-14T00:38:01;14.20;93.80
1830;DHT22;914;48.118;11.600;2023-03-14T00:40:27;14.40;93.50
1830;DHT22;914;48.118;11.600;2023-03-14T00:42:53;14.30;93.60
1830;DHT22;914;48.118;11.600;2023-03-14T00:45:18;14.20;93.50
1830;DHT22;914;48.118;11.600;2023-03-14T00:47:44;14.00;94.10
1830;DHT22;914;48.118;11.600;2023-03-14T00:50:11;13.90;94.20
1830;DHT22;914;48.118;11.600;2023-03-14T00:52:37;13.80;94.40
1830;DHT22;914;48.118;11.600;2023-03-14T00:55:03;13.70;94.90
1830;DHT22;914;48.118;11.600;2023-03-14T00:57:29;13.70;95.00
1830;DHT22;914;48.118;11.600;2023-03-14T00:59:55;13.70;95.20
1830;DHT22;914;48.118;11.600;2023-03-14T01:02:20;13.80;95.00
1830;DHT22;914;48.118;11.600;2023-03-14T01:04:48;13.80;95.00
1830;DHT22;914;48.118;11.600;2023-03-14T01:07:15;13.70;95.30
1830;DHT22;914;48.118;11.600;2023-03-14T01:09:42;13.70;95.60
1830;DHT22;914;48.118;11.600;2023-03-14T01:12:08;13.50;96.10
1830;DHT22;914;48.118;11.600;2023-03-14T01:14:35;13.60;96.40
1830;DHT22;914;48.118;11.600;2023-03-14T01:17:03;13.50;96.70
1830;DHT22;914;48.118;11.600;2023-03-14T01:19:30;13.50;97.50
1830;DHT22;914;48.118;11.600;2023-03-14T01:21:58;13.60;97.10
1830;DHT22;914;48.118;11.600;2023-03-14T01:24:26;13.50;97.90
1830;DHT22;914;48.118;11.600;2023-03-14T01:26:52;13.60;97.70
1830;DHT22;914;48.118;11.600;2023-03-14T01:29:36;13.30;98.60
1830;DHT22;914;48.118;11.600;2023-03-14T01:32:03;13.30;99.00
1830;DHT22;914;48.118;11.600;2023-03-14T01:34:32;13.10;99.70
1830;DHT22;914;48.118;11.600;2023-03-14T01:36:58;13.10;99.90
1830;DHT22;914;48.118;11.600;2023-03-14T01:39:23;13.10;99.90
1830;DHT22;914;48.118;11.600;2023-03-14T01:41:49;13.30;99.90
1830;DHT22;914;48.118;11.600;2023-03-14T01:44:15;13.30;99.90
1830;DHT22;914;48.118;11.600;2023-03-14T01:46:42;13.20;99.90
1830;DHT22;914;48.118;11.600;2023-03-14T01:54:40;13.10;99.90
1830;DHT22;914;48.118;11.600;2023-03-14T01:57:37;12.90;99.90
1830;DHT22;914;48.118;11.600;2023-03-14T02:00:12;12.60;99.90
1830;DHT22;914;48.118;11.600;2023-03-14T02:02:45;12.60;99.90
1830;DHT22;914;48.118;11.600;2023-03-14T02:05:13;12.30;99.90
1830;DHT22;914;48.118;11.600;2023-03-14T02:07:50;12.20;99.90
1830;DHT22;914;48.118;11.600;2023-03-14T02:10:18;12.30;99.90
1830;DHT22;914;48.118;11.600;2023-03-14T02:12:46;11.90;99.90
1830;DHT22;914;48.118;11.600;2023-03-14T02:15:13;11.90;99.90
1830;DHT22;914;48.118;11.600;2023-03-14T02:17:42;11.30;99.90
1830;DHT22;914;48.118;11.600;2023-03-14T02:20:17;11.30;99.90
1830;DHT22;914;48.118;11.600;2023-03-14T02:22:46;11.60;99.90
1830;DHT22;914;48.118;11.600;2023-03-14T02:27:50;11.60;99.90
1830;DHT22;914;48.118;11.600;2023-03-14T02:30:24;11.40;99.90
1830;DHT22;914;48.118;11.600;2023-03-14T02:33:12;11.20;99.90
1830;DHT22;914;48.118;11.600;2023-03-14T02:35:51;11.20;99.90
1830;DHT22;914;48.118;11.600;2023-03-14T02:40:52;10.90;99.90
1830;DHT22;914;48.118;11.600;2023-03-14T02:43:18;11.20;99.90
1830;DHT22;914;48.118;11.600;2023-03-14T02:45:46;11.20;99.90
1830;DHT22;914;48.118;11.600;2023-03-14T02:48:16;11.40;99.90
1830;DHT22;914;48.118;11.600;2023-03-14T02:50:45;11.30;99.90
1830;DHT22;914;48.118;11.600;2023-03-14T02:53:13;11.30;99.90
1830;DHT22;914;48.118;11.600;2023-03-14T02:55:45;11.30;99.90
1830;DHT22;914;48.118;11.600;2023-03-14T02:58:14;11.20;99.90
1830;DHT22;914;48.118;11.600;2023-03-14T03:00:40;11.20;99.90
1830;DHT22;914;48.118;11.600;2023-03-14T03:03:06;11.40;99.90
1830;DHT22;914;48.118;11.600;2023-03-14T03:05:31;11.10;99.90
1830;DHT22;914;48.118;11.600;2023-03-14T03:07:58;10.90;99.90
1830;DHT22;914;48.118;11.600;2023-03-14T03:10:24;10.80;99.90
1830;DHT22;914;48.118;11.600;2023-03-14T03:12:50;10.70;99.90
1830;DHT22;914;48.118;11.600;2023-03-14T03:15:16;10.70;99.90
1830;DHT22;914;48.118;11.600;2023-03-14T03:17:42;10.70;99.90
1830;DHT22;914;48.118;11.600;2023-03-14T03:20:09;10.90;99.90
1830;DHT22;914;48.118;11.600;2023-03-14T03:22:38;10.70;99.90
1830;DHT22;914;48.118;11.600;2023-03-14T03:25:05;10.80;99.90
1830;DHT22;914;48.118;11.600;2023-03-14T03:27:36;10.70;99.90
1830;DHT22;914;48.118;11.600;2023-03-14T03:30:03;11.20;99.90
1830;DHT22;914;48.118;11.600;2023-03-14T03:32:29;11.10;99.90
1830;DHT22;914;48.118;11.600;2023-03-14T03:34:55;11.00;99.90
1830;DHT22;914;48.118;11.600;2023-03-14T03:37:20;10.80;99.90
1830;DHT22;914;48.118;11.600;2023-03-14T03:39:46;10.90;99.90
1830;DHT22;914;48.118;11.600;2023-03-14T03:42:11;10.90;99.90
1830;DHT22;914;48.118;11.600;2023-03-14T03:44:37;11.10;99.90
1830;DHT22;914;48.118;11.600;2023-03-14T03:47:03;10.90;99.90
1830;DHT22;914;48.118;11.600;2023-03-14T03:49:30;10.70;99.90
1830;DHT22;914;48.118;11.600;2023-03-14T03:51:56;10.70;99.90
1830;DHT22;914;48.118;11.600;2023-03-14T03:54:22;11.00;99.90
1830;DHT22;914;48.118;11.600;2023-03-14T03:56:47;10.60;99.90
1830;DHT22;914;48.118;11.600;2023-03-14T03:59:13;10.50;99.90
1830;DHT22;914;48.118;11.600;2023-03-14T04:01:38;10.50;99.90
1830;DHT22;914;48.118;11.600;2023-03-14T04:04:04;10.50;99.90
1830;DHT22;914;48.118;11.600;2023-03-14T04:06:30;10.60;99.90
1830;DHT22;914;48.118;11.600;2023-03-14T04:08:56;10.60;99.90
1830;DHT22;914;48.118;11.600;2023-03-14T04:11:22;10.60;99.90
1830;DHT22;914;48.118;11.600;2023-03-14T04:13:48;10.60;99.90
1830;DHT22;914;48.118;11.600;2023-03-14T04:16:22;10.60;99.90
1830;DHT22;914;48.118;11.600;2023-03-14T04:18:49;10.50;99.90
1830;DHT22;914;48.118;11.600;2023-03-14T04:21:15;10.40;99.90
1830;DHT22;914;48.118;11.600;2023-03-14T04:23:40;10.40;99.90
1830;DHT22;914;48.118;11.600;2023-03-14T04:26:06;10.50;99.90
1830;DHT22;914;48.118;11.600;2023-03-14T04:28:32;10.60;99.90
1830;DHT22;914;48.118;11.600;2023-03-14T04:30:57;10.50;99.90
1830;DHT22;914;48.118;11.600;2023-03-14T04:33:23;10.40;99.90
1830;DHT22;914;48.118;11.600;2023-03-14T04:35:49;10.40;99.90
1830;DHT22;914;48.118;11.600;2023-03-14T04:38:18;10.40;99.90
1830;DHT22;914;48.118;11.600;2023-03-14T04:40:43;10.60;99.90
1830;DHT22;914;48.118;11.600;2023-03-14T04:43:10;10.50;99.90
1830;DHT22;914;48.118;11.600;2023-03-14T04:45:36;10.50;99.90
1830;DHT22;914;48.118;11.600;2023-03-14T04:48:02;10.30;99.90
1830;DHT22;914;48.118;11.600;2023-03-14T04:50:28;10.30;99.90
1830;DHT22;914;48.118;11.600;2023-03-14T04:52:53;10.20;99.90
1830;DHT22;914;48.118;11.600;2023-03-14T04:55:19;10.50;99.90
1830;DHT22;914;48.118;11.600;2023-03-14T04:57:45;10.40;99.90
1830;DHT22;914;48.118;11.600;2023-03-14T05:00:11;10.50;99.90
1830;DHT22;914;48.118;11.600;2023-03-14T05:02:37;10.50;99.90
1830;DHT22;914;48.118;11.600;2023-03-14T05:05:03;10.40;99.90
1830;DHT22;914;48.118;11.600;2023-03-14T05:07:29;11.00;99.90
1830;DHT22;914;48.118;11.600;2023-03-14T05:09:55;10.70;99.90
1830;DHT22;914;48.118;11.600;2023-03-14T05:12:21;10.60;99.90
1830;DHT22;914;48.118;11.600;2023-03-14T05:14:47;10.50;99.90
1830;DHT22;914;48.118;11.600;2023-03-14T05:17:13;10.50;99.90
1830;DHT22;914;48.118;11.600;2023-03-14T05:19:40;10.70;99.90
1830;DHT22;914;48.118;11.600;2023-03-14T05:22:06;10.50;99.90
1830;DHT22;914;48.118;11.600;2023-03-14T05:24:32;10.70;99.90
1830;DHT22;914;48.118;11.600;2023-03-14T05:26:58;10.80;99.90
1830;DHT22;914;48.118;11.600;2023-03-14T05:29:24;10.60;99.90
1830;DHT22;914;48.118;11.600;2023-03-14T05:31:50;10.70;99.90
1830;DHT22;914;48.118;11.600;2023-03-14T05:34:16;10.70;99.90
1830;DHT22;914;48.118;11.600;2023-03-14T05:36:42;10.50;99.90
1830;DHT22;914;48.118;11.600;2023-03-14T05:39:07;10.30;99.90
1830;DHT22;914;48.118;11.600;2023-03-14T05:41:33;10.30;99.90
1830;DHT22;914;48.118;11.600;2023-03-14T05:43:59;10.30;99.90
1830;DHT22;914;48.118;11.600;2023-03-14T05:46:24;10.30;99.90
1830;DHT22;914;48.118;11.600;2023-03-14T05:48:50;10.10;99.90
1830;DHT22;914;48.118;11.600;2023-03-14T05:51:15;10.20;99.90
1830;DHT22;914;48.118;11.600;2023-03-14T05:53:41;10.30;99.90
1830;DHT22;914;48.118;11.600;2023-03-14T05:56:07;10.40;99.90
1830;DHT22;914;48.118;11.600;2023-03-14T05:58:33;10.40;99.90
1830;DHT22;914;48.118;11.600;2023-03-14T06:01:02;10.40;99.90
1830;DHT22;914;48.118;11.600;2023-03-14T06:03:28;10.50;99.90
1830;DHT22;914;48.118;11.600;2023-03-14T06:05:54;10.40;99.90
1830;DHT22;914;48.118;11.600;2023-03-14T06:08:20;10.50;99.90
1830;DHT22;914;48.118;11.600;2023-03-14T06:10:46;10.50;99.90
1830;DHT22;914;48.118;11.600;2023-03-14T06:13:11;10.40;99.90
1830;DHT22;914;48.118;11.600;2023-03-14T06:15:37;10.40;99.90
1830;DHT22;914;48.118;11.600;2023-03-14T06:18:03;10.50;99.90
1830;DHT22;914;48.118;11.600;2023-03-14T06:20:31;10.60;99.90
1830;DHT22;914;48.118;11.600;2023-03-14T06:22:58;10.80;99.90
1830;DHT22;914;48.118;11.600;2023-03-14T06:25:24;10.80;99.90
1830;DHT22;914;48.118;11.600;2023-03-14T06:27:50;10.70;99.90
1830;DHT22;914;48.118;11.600;2023-03-14T06:30:16;10.80;99.90
1830;DHT22;914;48.118;11.600;2023-03-14T06:32:42;10.90;99.90
1830;DHT22;914;48.118;11.600;2023-03-14T06:35:08;10.90;99.90
1830;DHT22;914;48.118;11.600;2023-03-14T06:37:34;11.10;99.90
1830;DHT22;914;48.118;11.600;2023-03-14T06:39:59;11.20;99.90
1830;DHT22;914;48.118;11.600;2023-03-14T06:42:25;11.40;99.90
1830;DHT22;914;48.118;11.600;2023-03-14T06:44:51;11.60;99.90
1830;DHT22;914;48.118;11.600;2023-03-14T06:47:17;11.70;99.90
1830;DHT22;914;48.118;11.600;2023-03-14T06:49:42;11.80;99.90
1830;DHT22;914;48.118;11.600;2023-03-14T06:52:08;11.80;99.90
1830;DHT22;914;48.118;11.600;2023-03-14T06:54:36;11.80;99.90
1830;DHT22;914;48.118;11.600;2023-03-14T06:57:02;11.70;99.90
1830;DHT22;914;48.118;11.600;2023-03-14T06:59:27;11.70;99.90
1830;DHT22;914;48.118;11.600;2023-03-14T07:01:53;11.60;99.90
1830;DHT22;914;48.118;11.600;2023-03-14T07:04:19;11.60;99.90
1830;DHT22;914;48.118;11.600;2023-03-14T07:06:45;11.50;99.90
1830;DHT22;914;48.118;11.600;2023-03-14T07:09:11;11.50;99.90
1830;DHT22;914;48.118;11.600;2023-03-14T07:11:37;11.40;99.90
1830;DHT22;914;48.118;11.600;2023-03-14T07:14:04;11.50;99.90
1830;DHT22;914;48.118;11.600;2023-03-14T07:16:29;11.40;99.90
1830;DHT22;914;48.118;11.600;2023-03-14T07:18:58;11.50;99.90
1830;DHT22;914;48.118;11.600;2023-03-14T07:21:24;11.60;99.90
1830;DHT22;914;48.118;11.600;2023-03-14T07:23:50;11.70;99.90
1830;DHT22;914;48.118;11.600;2023-03-14T07:26:15;11.80;99.90
1830;DHT22;914;48.118;11.600;2023-03-14T07:28:41;11.80;99.90
1830;DHT22;914;48.118;11.600;2023-03-14T07:31:07;11.80;99.90
1830;DHT22;914;48.118;11.600;2023-03-14T07:33:34;11.90;99.90
1830;DHT22;914;48.118;11.600;2023-03-14T07:35:59;12.00;99.90
1830;DHT22;914;48.118;11.600;2023-03-14T07:38:25;11.90;99.90
1830;DHT22;914;48.118;11.600;2023-03-14T07:41:00;11.90;99.90
1830;DHT22;914;48.118;11.600;2023-03-14T07:43:26;11.90;99.90
1830;DHT22;914;48.118;11.600;2023-03-14T07:45:52;11.90;99.90
1830;DHT22;914;48.118;11.600;2023-03-14T07:48:18;11.70;99.60
1830;DHT22;914;48.118;11.600;2023-03-14T07:50:44;11.60;99.80
1830;DHT22;914;48.118;11.600;2023-03-14T07:53:09;11.60;99.60
1830;DHT22;914;48.118;11.600;2023-03-14T07:55:35;11.60;99.30
1830;DHT22;914;48.118;11.600;2023-03-14T07:58:01;11.80;99.50
1830;DHT22;914;48.118;11.600;2023-03-14T08:00:27;12.00;98.80
1830;DHT22;914;48.118;11.600;2023-03-14T08:02:52;12.00;99.10
1830;DHT22;914;48.118;11.600;2023-03-14T08:05:18;12.10;97.90
1830;DHT22;914;48.118;11.600;2023-03-14T08:07:44;11.90;98.10
1830;DHT22;914;48.118;11.600;2023-03-14T08:10:10;11.90;97.80
1830;DHT22;914;48.118;11.600;2023-03-14T08:12:36;11.90;97.90
1830;DHT22;914;48.118;11.600;2023-03-14T08:15:02;12.40;97.50
1830;DHT22;914;48.118;11.600;2023-03-14T08:17:28;12.30;97.00
1830;DHT22;914;48.118;11.600;2023-03-14T08:19:54;12.50;96.60
1830;DHT22;914;48.118;11.600;2023-03-14T08:22:19;12.60;96.80
1830;DHT22;914;48.118;11.600;2023-03-14T08:24:45;12.90;95.50
1830;DHT22;914;48.118;11.600;2023-03-14T08:27:12;12.30;95.80
1830;DHT22;914;48.118;11.600;2023-03-14T08:29:39;12.00;96.20
1830;DHT22;914;48.118;11.600;2023-03-14T08:32:07;11.90;96.30
1830;DHT22;914;48.118;11.600;2023-03-14T08:34:33;12.40;96.50
1830;DHT22;914;48.118;11.600;2023-03-14T08:36:59;12.50;95.70
1830;DHT22;914;48.118;11.600;2023-03-14T08:39:25;12.40;95.20
1830;DHT22;914;48.118;11.600;2023-03-14T08:41:50;12.20;95.60
1830;DHT22;914;48.118;11.600;2023-03-14T08:44:16;12.30;95.20
1830;DHT22;914;48.118;11.600;2023-03-14T08:46:42;12.20;95.30
1830;DHT22;914;48.118;11.600;2023-03-14T08:49:07;12.30;95.90
1830;DHT22;914;48.118;11.600;2023-03-14T08:51:33;12.10;95.40
1830;DHT22;914;48.118;11.600;2023-03-14T08:53:59;12.20;95.20
1830;DHT22;914;48.118;11.600;2023-03-14T08:56:24;12.50;95.30
1830;DHT22;914;48.118;11.600;2023-03-14T08:58:50;12.30;95.40
1830;DHT22;914;48.118;11.600;2023-03-14T09:01:16;12.10;95.10
1830;DHT22;914;48.118;11.600;2023-03-14T09:03:42;12.00;95.50
1830;DHT22;914;48.118;11.600;2023-03-14T09:06:09;12.00;95.40
1830;DHT22;914;48.118;11.600;2023-03-14T09:08:35;12.00;95.50
1830;DHT22;914;48.118;11.600;2023-03-14T09:11:02;12.10;95.30
1830;DHT22;914;48.118;11.600;2023-03-14T09:13:28;12.10;95.20
1830;DHT22;914;48.118;11.600;2023-03-14T09:15:55;12.30;95.60
1830;DHT22;914;48.118;11.600;2023-03-14T09:18:21;12.40;95.30
1830;DHT22;914;48.118;11.600;2023-03-14T09:20:48;12.70;95.20
1830;DHT22;914;48.118;11.600;2023-03-14T09:23:15;12.80;94.70
1830;DHT22;914;48.118;11.600;2023-03-14T09:25:40;12.80;94.60
1830;DHT22;914;48.118;11.600;2023-03-14T09:28:06;12.50;94.60
1830;DHT22;914;48.118;11.600;2023-03-14T09:30:32;12.60;94.80
1830;DHT22;914;48.118;11.600;2023-03-14T09:32:58;12.60;94.50
1830;DHT22;914;48.118;11.600;2023-03-14T09:35:24;12.70;94.20
1830;DHT22;914;48.118;11.600;2023-03-14T09:37:50;12.80;94.20
1830;DHT22;914;48.118;11.600;2023-03-14T09:40:19;12.70;93.90
1830;DHT22;914;48.118;11.600;2023-03-14T09:42:48;12.90;94.00
1830;DHT22;914;48.118;11.600;2023-03-14T09:45:21;13.30;94.00
1830;DHT22;914;48.118;11.600;2023-03-14T09:47:49;13.30;93.80
1830;DHT22;914;48.118;11.600;2023-03-14T09:50:15;13.10;93.60
1830;DHT22;914;48.118;11.600;2023-03-14T09:52:46;13.10;93.80
1830;DHT22;914;48.118;11.600;2023-03-14T09:55:21;12.90;93.90
1830;DHT22;914;48.118;11.600;2023-03-14T09:57:49;12.90;94.80
1830;DHT22;914;48.118;11.600;2023-03-14T10:00:19;13.00;94.60
1830;DHT22;914;48.118;11.600;2023-03-14T10:05:38;13.00;94.80
1830;DHT22;914;48.118;11.600;2023-03-14T10:08:04;12.90;95.00
1830;DHT22;914;48.118;11.600;2023-03-14T10:10:31;13.00;95.40
1830;DHT22;914;48.118;11.600;2023-03-14T10:15:47;13.20;95.10
1830;DHT22;914;48.118;11.600;2023-03-14T10:18:14;13.00;94.50
1830;DHT22;914;48.118;11.600;2023-03-14T10:20:45;13.10;93.50
1830;DHT22;914;48.118;11.600;2023-03-14T10:25:39;13.00;92.60
1830;DHT22;914;48.118;11.600;2023-03-14T10:28:05;12.90;91.90
1830;DHT22;914;48.118;11.600;2023-03-14T10:30:46;13.50;92.10
1830;DHT22;914;48.118;11.600;2023-03-14T10:35:44;13.70;90.90
1830;DHT22;914;48.118;11.600;2023-03-14T10:38:16;14.00;90.20
1830;DHT22;914;48.118;11.600;2023-03-14T10:40:53;14.30;90.40
1830;DHT22;914;48.118;11.600;2023-03-14T10:43:23;14.00;88.70
1830;DHT22;914;48.118;11.600;2023-03-14T10:45:55;14.00;88.80
1830;DHT22;914;48.118;11.600;2023-03-14T10:48:37;14.00;88.60
1830;DHT22;914;48.118;11.600;2023-03-14T10:51:19;14.60;88.60
1830;DHT22;914;48.118;11.600;2023-03-14T10:53:56;14.50;87.30
1830;DHT22;914;48.118;11.600;2023-03-14T10:56:24;14.20;87.30
1830;DHT22;914;48.118;11.600;2023-03-14T10:58:52;13.90;87.60
1830;DHT22;914;48.118;11.600;2023-03-14T11:04:13;13.80;87.40
1830;DHT22;914;48.118;11.600;2023-03-14T11:09:51;13.60;87.40
1830;DHT22;914;48.118;11.600;2023-03-14T11:12:34;14.00;86.80
1830;DHT22;914;48.118;11.600;2023-03-14T11:15:15;14.20;85.50
1830;DHT22;914;48.118;11.600;2023-03-14T11:23:22;14.50;85.80
1830;DHT22;914;48.118;11.600;2023-03-14T11:26:01;14.90;83.30
1830;DHT22;914;48.118;11.600;2023-03-14T11:28:39;14.60;82.30
1830;DHT22;914;48.118;11.600;2023-03-14T11:34:00;14.60;82.20
1830;DHT22;914;48.118;11.600;2023-03-14T11:36:36;14.40;82.50
1830;DHT22;914;48.118;11.600;2023-03-14T11:39:14;14.90;81.40
1830;DHT22;914;48.118;11.600;2023-03-14T11:41:45;14.50;81.30
1830;DHT22;914;48.118;11.600;2023-03-14T11:44:34;14.20;81.70
1830;DHT22;914;48.118;11.600;2023-03-14T11:47:21;14.30;81.90
1830;DHT22;914;48.118;11.600;2023-03-14T11:52:48;14.60;81.70
1830;DHT22;914;48.118;11.600;2023-03-14T11:55:25;14.60;81.40
1830;DHT22;914;48.118;11.600;2023-03-14T11:57:58;14.30;81.60
1830;DHT22;914;48.118;11.600;2023-03-14T12:00:25;14.40;81.60
1830;DHT22;914;48.118;11.600;2023-03-14T12:03:06;14.30;82.10
1830;DHT22;914;48.118;11.600;2023-03-14T12:06:00;14.40;82.30
1830;DHT22;914;48.118;11.600;2023-03-14T12:08:44;14.40;81.10
1830;DHT22;914;48.118;11.600;2023-03-14T12:11:15;14.60;81.90
1830;DHT22;914;48.118;11.600;2023-03-14T12:13:46;14.40;81.80
1830;DHT22;914;48.118;11.600;2023-03-14T12:16:34;14.50;82.40
1830;DHT22;914;48.118;11.600;2023-03-14T12:19:36;14.50;82.90
1830;DHT22;914;48.118;11.600;2023-03-14T12:22:27;14.80;80.80
1830;DHT22;914;48.118;11.600;2023-03-14T12:33:10;14.20;83.80
1830;DHT22;914;48.118;11.600;2023-03-14T12:35:37;14.00;83.80
1830;DHT22;914;48.118;11.600;2023-03-14T12:38:04;14.20;84.30
1830;DHT22;914;48.118;11.600;2023-03-14T12:40:39;14.50;83.80
1830;DHT22;914;48.118;11.600;2023-03-14T12:43:28;14.40;82.80
1830;DHT22;914;48.118;11.600;2023-03-14T12:46:15;14.40;82.30
1830;DHT22;914;48.118;11.600;2023-03-14T12:49:05;14.40;83.00
1830;DHT22;914;48.118;11.600;2023-03-14T12:51:38;14.90;82.40
1830;DHT22;914;48.118;11.600;2023-03-14T12:54:13;15.10;82.30
1830;DHT22;914;48.118;11.600;2023-03-14T12:56:53;15.60;80.30
1830;DHT22;914;48.118;11.600;2023-03-14T12:59:33;15.30;81.20
1830;DHT22;914;48.118;11.600;2023-03-14T13:02:10;15.20;81.30
1830;DHT22;914;48.118;11.600;2023-03-14T13:04:48;15.00;80.90
1830;DHT22;914;48.118;11.600;2023-03-14T13:15:23;14.20;83.20
1830;DHT22;914;48.118;11.600;2023-03-14T13:17:51;14.10;83.80
1830;DHT22;914;48.118;11.600;2023-03-14T13:20:38;14.10;83.70
1830;DHT22;914;48.118;11.600;2023-03-14T13:23:26;14.50;83.80
1830;DHT22;914;48.118;11.600;2023-03-14T13:25:52;14.50;82.90
1830;DHT22;914;48.118;11.600;2023-03-14T13:28:18;14.30;83.20
1830;DHT22;914;48.118;11.600;2023-03-14T13:30:46;13.80;84.40
1830;DHT22;914;48.118;11.600;2023-03-14T13:33:18;13.90;85.20
1830;DHT22;914;48.118;11.600;2023-03-14T13:35:47;13.80;85.60
1830;DHT22;914;48.118;11.600;2023-03-14T13:38:17;13.30;86.70
1830;DHT22;914;48.118;11.600;2023-03-14T13:40:45;13.70;86.20
1830;DHT22;914;48.118;11.600;2023-03-14T13:45:50;13.20;87.60
1830;DHT22;914;48.118;11.600;2023-03-14T13:48:16;13.00;88.30
1830;DHT22;914;48.118;11.600;2023-03-14T13:50:54;12.80;88.70
1830;DHT22;914;48.118;11.600;2023-03-14T13:53:20;12.70;89.30
1830;DHT22;914;48.118;11.600;2023-03-14T13:55:46;12.30;90.40
1830;DHT22;914;48.118;11.600;2023-03-14T13:58:24;12.30;91.10
1830;DHT22;914;48.118;11.600;2023-03-14T14:01:01;12.60;91.70
1830;DHT22;914;48.118;11.600;2023-03-14T14:03:29;12.00;92.90
1830;DHT22;914;48.118;11.600;2023-03-14T14:05:56;12.00;94.00
1830;DHT22;914;48.118;11.600;2023-03-14T14:08:26;11.60;94.20
1830;DHT22;914;48.118;11.600;2023-03-14T14:10:57;11.80;94.30
1830;DHT22;914;48.118;11.600;2023-03-14T14:13:25;11.70;94.80
1830;DHT22;914;48.118;11.600;2023-03-14T14:15:52;11.50;95.90
1830;DHT22;914;48.118;11.600;2023-03-14T14:18:22;11.00;97.40
1830;DHT22;914;48.118;11.600;2023-03-14T14:20:50;10.90;98.10
1830;DHT22;914;48.118;11.600;2023-03-14T14:23:19;10.90;98.80
1830;DHT22;914;48.118;11.600;2023-03-14T14:25:55;10.50;99.80
1830;DHT22;914;48.118;11.600;2023-03-14T14:31:21;10.40;99.90
1830;DHT22;914;48.118;11.600;2023-03-14T14:33:55;10.10;99.90
1830;DHT22;914;48.118;11.600;2023-03-14T14:36:28;9.90;99.90
1830;DHT22;914;48.118;11.600;2023-03-14T14:39:09;9.60;99.90
1830;DHT22;914;48.118;11.600;2023-03-14T14:41:40;9.20;99.90
1830;DHT22;914;48.118;11.600;2023-03-14T14:44:07;9.30;99.90
1830;DHT22;914;48.118;11.600;2023-03-14T14:46:36;9.20;99.90
1830;DHT22;914;48.118;11.600;2023-03-14T14:49:14;9.10;99.90
1830;DHT22;914;48.118;11.600;2023-03-14T14:51:43;9.10;99.90
1830;DHT22;914;48.118;11.600;2023-03-14T14:54:12;9.20;99.90
1830;DHT22;914;48.118;11.600;2023-03-14T14:56:39;9.40;99.90
1830;DHT22;914;48.118;11.600;2023-03-14T14:59:06;9.40;99.90
1830;DHT22;914;48.118;11.600;2023-03-14T15:01:35;9.30;99.90
1830;DHT22;914;48.118;11.600;2023-03-14T15:04:02;9.20;99.90
1830;DHT22;914;48.118;11.600;2023-03-14T15:06:30;9.20;99.90
1830;DHT22;914;48.118;11.600;2023-03-14T15:08:57;9.20;99.90
1830;DHT22;914;48.118;11.600;2023-03-14T15:11:25;8.90;99.90
1830;DHT22;914;48.118;11.600;2023-03-14T15:13:51;9.10;99.90
1830;DHT22;914;48.118;11.600;2023-03-14T15:16:23;9.60;99.90
1830;DHT22;914;48.118;11.600;2023-03-14T15:18:56;9.30;99.90
1830;DHT22;914;48.118;11.600;2023-03-14T15:21:23;9.40;99.90
1830;DHT22;914;48.118;11.600;2023-03-14T15:23:49;9.50;99.90
1830;DHT22;914;48.118;11.600;2023-03-14T15:26:17;9.40;99.90
1830;DHT22;914;48.118;11.600;2023-03-14T15:28:43;9.40;99.90
1830;DHT22;914;48.118;11.600;2023-03-14T15:31:10;9.40;99.90
1830;DHT22;914;48.118;11.600;2023-03-14T15:33:36;9.50;99.90
1830;DHT22;914;48.118;11.600;2023-03-14T15:36:04;9.50;99.90
1830;DHT22;914;48.118;11.600;2023-03-14T15:38:30;9.40;99.90
1830;DHT22;914;48.118;11.600;2023-03-14T15:40:56;9.40;99.90
1830;DHT22;914;48.118;11.600;2023-03-14T15:43:21;9.40;99.90
1830;DHT22;914;48.118;11.600;2023-03-14T15:45:47;9.50;99.90
1830;DHT22;914;48.118;11.600;2023-03-14T15:48:20;9.30;99.90
1830;DHT22;914;48.118;11.600;2023-03-14T15:50:47;9.10;99.90
1830;DHT22;914;48.118;11.600;2023-03-14T15:53:13;8.90;99.90
1830;DHT22;914;48.118;11.600;2023-03-14T15:55:38;8.80;99.90
1830;DHT22;914;48.118;11.600;2023-03-14T15:58:04;8.80;99.90
1830;DHT22;914;48.118;11.600;2023-03-14T16:00:30;8.50;99.90
1830;DHT22;914;48.118;11.600;2023-03-14T16:03:00;8.20;99.90
1830;DHT22;914;48.118;11.600;2023-03-14T16:05:25;8.10;99.90
1830;DHT22;914;48.118;11.600;2023-03-14T16:07:51;8.00;99.90
1830;DHT22;914;48.118;11.600;2023-03-14T16:10:20;7.90;99.90
1830;DHT22;914;48.118;11.600;2023-03-14T16:12:50;7.60;99.90
1830;DHT22;914;48.118;11.600;2023-03-14T16:15:20;7.70;99.90
1830;DHT22;914;48.118;11.600;2023-03-14T16:17:53;7.90;99.90
1830;DHT22;914;48.118;11.600;2023-03-14T16:20:22;8.10;99.90
1830;DHT22;914;48.118;11.600;2023-03-14T16:22:52;8.40;99.90
1830;DHT22;914;48.118;11.600;2023-03-14T16:25:24;8.30;99.90
1830;DHT22;914;48.118;11.600;2023-03-14T16:27:57;8.70;99.10
1830;DHT22;914;48.118;11.600;2023-03-14T16:30:25;8.70;99.00
1830;DHT22;914;48.118;11.600;2023-03-14T16:32:54;8.70;98.30
1830;DHT22;914;48.118;11.600;2023-03-14T16:35:25;8.60;97.80
1830;DHT22;914;48.118;11.600;2023-03-14T16:37:51;8.60;96.00
1830;DHT22;914;48.118;11.600;2023-03-14T16:40:19;8.50;95.60
1830;DHT22;914;48.118;11.600;2023-03-14T16:42:48;8.60;94.50
1830;DHT22;914;48.118;11.600;2023-03-14T16:45:15;8.50;93.30
1830;DHT22;914;48.118;11.600;2023-03-14T16:47:45;8.40;93.00
1830;DHT22;914;48.118;11.600;2023-03-14T16:50:13;8.60;92.20
1830;DHT22;914;48.118;11.600;2023-03-14T16:52:43;9.00;92.40
1830;DHT22;914;48.118;11.600;2023-03-14T16:55:12;9.00;91.70
1830;DHT22;914;48.118;11.600;2023-03-14T16:57:39;8.80;92.00
1830;DHT22;914;48.118;11.600;2023-03-14T17:00:06;9.00;92.40
1830;DHT22;914;48.118;11.600;2023-03-14T17:02:43;9.10;92.20
1830;DHT22;914;48.118;11.600;2023-03-14T17:05:13;8.90;92.60
1830;DHT22;914;48.118;11.600;2023-03-14T17:07:47;9.00;92.90
1830;DHT22;914;48.118;11.600;2023-03-14T17:10:15;8.90;93.00
1830;DHT22;914;48.118;11.600;2023-03-14T17:12:40;8.90;92.50
1830;DHT22;914;48.118;11.600;2023-03-14T17:15:06;8.80;91.90